Airfield :
LOGIN :

Register | Disclaimer

   EN    FR    IT 

 










Legend :    VFR   Marginal VFR   IFR   Intensive IFR   Very Intensive IFR
Visi :
Ceiling :
>= 8 km
>= 3000ft
5 to 8 km
1000 to 3000 ft
1500m to 5 km
500 to 1000 ft
800 to 1500m
200 to 500 ft
< 800m
< 200 ft
Symbols :   Thunderstorms  Fog  Heavy snow  Heavy precipitations  Wind > 20 kt
SIGMETs :     Misc.  Thunderstorms  Icing  Turbulence  Mountain Waves  Volcanic Ashes







- Airport Elevation : 15 ft
- IATA code : BHD
- Download approach charts


EGAC - George Best Belfast City

CURRENT METAR :
  • 231350Z 05011KT 9999 -SHRA FEW024 SCT035 BKN048 09/04 Q1025

EXPIRED METARs :
  • 231320Z 05015KT 9999 -SHRA FEW024 SCT035 BKN048 09/04 Q1024
  • 231250Z 05012KT 9999 -SHRA FEW018 SCT021 BKN025 09/05 Q1024
  • 231220Z 04010KT 9999 -SHRA FEW018 SCT021 BKN025 08/05 Q1024
  • 231150Z 04010KT 9999 -SHRA FEW014 SCT018 BKN021 08/05 Q1024
  • 231120Z 04014KT 9999 FEW014 SCT018 BKN021 07/05 Q1024

TAF TAF EGAC
Valid from the 23 at 12:00 until the 23 at 21:00 UTC


231055Z 2312/2321 04010KT 9999 FEW018 SCT025
ATIS : +44 02890 935 124
No reported NOTAMs for that airfield.
1 SIGMET reported for the Scottish FIR (EGPX) :
 
Severe turbulence
EGPX SIGMET 02 VALID 231215/231615 EGRR
EGPX SCOTTISH FIR SEV TURB FCST SE OF LINE N5835 E00221 - N5415 W00716 FL240/330 MOV SE 10KT NC=



MET'MAP, your aeronautical weather chart ! - Copyright ORBIFLY December 2007 - Disclaimer

ORBIFLY MET'MAP TEAM :

Programming & Development : Alexandra Zaïnal
Concept & Development : Baudouin d'Aumeries
Co-Development & Prog : Marc-Olivier Méhu
Technical & hardware support : Manuel Goepfert

Contact : metmap@orbifly.com




SOURCES & CREDITS :

   NOAA